Date,TemperatureHighF,TemperatureAvgF,TemperatureLowF,DewpointHighF,DewpointAvgF,DewpointLowF,HumidityHigh,HumidityAvg,HumidityLow,PressureMaxIn,PressureMinIn,WindSpeedMaxMPH,WindSpeedAvgMPH,GustSpeedMaxMPH,PrecipitationSumIn
2013-1-1,75.0,64.3,55.4,62.3,58.0,53.7,96,81,62,30.24,30.06,13,1,13,0.00
2013-1-2,75.2,66.2,57.7,66.9,62.4,55.6,97,88,72,30.09,29.99,7,1,7,0.00
2013-1-3,69.5,62.8,56.1,65.9,61.5,54.6,99,96,86,30.21,30.05,14,1,14,0.00
2013-1-4,57.5,55.4,52.5,57.2,54.9,52.0,99,98,98,30.31,30.18,10,1,10,0.00
2013-1-5,71.2,60.3,50.3,62.1,55.6,48.1,98,85,70,30.34,30.22,13,2,13,0.00
2013-1-6,77.3,65.8,59.3,68.7,62.6,57.0,98,90,73,30.24,30.08,11,1,11,0.00
2013-1-7,66.7,60.2,53.3,59.7,56.4,49.2,97,88,71,30.26,30.15,14,2,14,0.00
2013-1-8,80.2,69.3,59.9,70.4,65.8,59.0,99,89,67,30.26,30.16,12,1,12,0.00
2013-1-9,82.2,73.3,67.6,72.4,69.4,67.0,99,88,72,30.33,30.22,13,2,13,0.00
2013-1-10,80.6,72.0,65.5,71.1,66.8,63.2,99,85,57,30.33,30.24,16,2,16,0.00
2013-1-11,80.8,70.5,61.6,70.9,65.4,60.6,99,85,64,30.29,30.17,9,0,9,0.00
2013-1-12,81.5,71.2,63.5,68.5,64.8,62.6,98,82,56,30.22,30.11,12,1,12,0.00
2013-1-13,80.7,70.4,62.6,68.6,64.7,61.6,98,83,59,30.20,30.09,8,1,8,0.00
2013-1-14,80.3,70.5,63.4,67.8,64.9,62.6,98,84,60,30.22,30.14,8,1,8,0.00
2013-1-15,71.0,67.9,64.9,66.4,65.1,63.6,96,91,85,30.18,30.08,7,0,7,0.00
2013-1-16,81.1,70.1,62.4,67.1,62.8,59.5,97,79,53,30.13,30.02,7,1,7,0.00
2013-1-17,73.0,62.3,50.7,68.4,58.9,44.4,97,89,77,30.15,30.01,19,5,19,0.00
2013-1-18,64.6,52.1,39.6,55.8,45.9,35.1,88,80,69,30.32,30.15,21,2,21,0.00
2013-1-19,72.3,61.9,52.0,61.0,56.1,48.7,93,82,66,30.31,30.16,15,2,15,0.00
2013-1-20,72.6,63.0,58.0,62.6,58.4,54.9,97,86,70,30.21,30.07,10,1,10,0.00
2013-1-21,74.4,65.4,59.3,63.7,57.3,53.8,89,76,61,30.13,30.02,7,0,7,0.00
2013-1-22,61.5,56.2,47.3,54.0,41.9,34.1,81,60,38,30.30,30.09,16,1,16,0.00
2013-1-23,68.8,54.7,43.0,43.8,37.5,32.2,81,56,28,30.39,30.29,8,1,8,0.00
2013-1-24,73.2,57.8,44.5,55.5,48.7,40.3,92,74,44,30.35,30.23,8,1,8,0.00
2013-1-25,74.9,60.1,49.1,60.1,52.6,47.3,98,79,46,30.33,30.18,8,1,8,0.00
2013-1-26,76.8,61.8,51.0,60.3,54.6,47.4,98,79,49,30.29,30.17,9,1,9,0.00
2013-1-27,76.7,64.0,51.2,63.3,57.7,50.1,99,82,53,30.33,30.24,13,1,13,0.00
2013-1-28,77.8,69.1,62.4,65.7,63.5,60.8,95,83,65,30.36,30.25,14,2,14,0.00
2013-1-29,83.8,71.1,62.8,69.8,65.5,62.2,99,84,55,30.27,30.11,10,1,10,0.00
2013-1-30,81.0,72.2,65.1,67.8,65.4,63.1,96,80,60,30.13,29.90,21,4,21,0.00
2013-1-31,70.0,56.7,44.8,66.1,44.2,28.4,97,67,27,30.27,29.91,11,1,15,0.00
2013-2-1,71.0,53.2,39.7,41.5,34.6,26.6,83,55,21,30.38,30.25,8,0,8,0.00
2013-2-2,71.4,56.0,41.1,47.6,40.2,34.3,85,58,36,30.33,30.15,9,1,9,0.00
2013-2-3,71.3,55.1,40.6,53.5,43.7,35.5,85,67,42,30.21,30.06,13,2,13,0.00
2013-2-4,69.3,55.0,42.1,47.8,41.0,35.8,95,64,33,30.16,30.05,7,0,7,0.00
2013-2-5,75.9,59.3,43.0,55.7,47.7,38.1,93,67,44,30.12,30.00,7,1,7,0.00
2013-2-6,75.7,66.5,56.1,63.7,58.5,52.1,90,76,58,30.13,30.04,8,1,8,0.00
2013-2-7,78.2,70.3,63.4,65.1,62.9,60.7,91,78,59,30.09,29.87,23,3,23,0.00
2013-2-8,78.8,67.3,56.3,65.3,60.4,54.3,94,80,52,30.11,29.90,13,3,13,0.00
2013-2-9,72.3,60.8,51.9,57.4,54.2,51.1,97,81,54,30.23,30.09,15,2,15,0.00
2013-2-10,77.7,66.8,56.8,60.4,57.3,53.3,90,73,51,30.29,30.17,14,2,14,0.00
2013-2-11,80.5,69.3,59.0,65.1,61.3,57.4,95,77,55,30.23,30.08,15,1,15,0.00
2013-2-12,81.8,71.3,63.9,68.5,65.7,61.3,97,84,61,30.12,29.94,14,2,14,0.00
2013-2-13,80.0,70.3,61.1,70.4,67.0,59.6,98,90,69,30.00,29.84,18,5,18,0.00
2013-2-14,63.0,62.4,61.7,61.2,60.5,59.7,95,94,92,29.99,29.95,6,0,6,0.00
2013-2-15,69.0,58.8,50.7,57.8,53.7,50.2,98,84,60,30.12,29.97,8,1,8,0.00
2013-2-16,66.8,54.9,46.2,51.9,46.0,27.7,95,74,48,30.16,29.93,21,3,21,0.00
2013-2-17,54.9,43.8,32.5,29.6,23.0,13.9,74,47,21,30.37,30.16,12,1,12,0.00
2013-2-18,61.2,44.8,33.9,48.0,36.8,23.9,88,74,56,30.37,30.22,7,2,7,0.00
2013-2-19,74.3,62.3,48.4,59.9,54.3,45.1,91,76,55,30.24,30.06,15,2,15,0.00
2013-2-20,74.5,63.7,57.1,61.1,56.7,52.3,96,79,60,30.16,30.03,11,1,11,0.00
2013-2-21,81.1,68.0,54.4,65.9,59.1,51.8,93,75,53,30.13,30.00,9,2,9,0.00
2013-2-22,85.2,73.6,64.3,69.7,65.9,62.8,97,79,50,30.10,29.99,12,1,12,0.00
2013-2-23,81.0,71.3,69.3,70.5,67.8,66.0,95,89,71,30.03,29.97,13,3,13,0.00
2013-2-24,73.2,69.7,65.4,71.2,68.3,63.9,98,95,90,29.99,29.89,10,2,10,0.00
2013-2-25,83.2,71.7,63.9,71.3,66.3,63.0,99,84,59,29.95,29.79,10,1,10,0.00
2013-2-26,74.2,69.7,64.3,71.4,66.6,61.9,97,90,76,29.89,29.75,19,4,19,0.00
2013-2-27,75.3,64.0,54.4,62.7,56.9,50.3,96,79,51,30.01,29.88,11,2,11,0.00
2013-2-28,71.3,59.9,50.1,56.8,51.8,48.3,96,76,47,30.02,29.89,18,3,18,0.00
2013-3-1,64.1,54.3,46.0,50.5,43.2,37.9,85,68,40,30.02,29.92,16,2,16,0.00
2013-3-2,58.0,49.9,42.3,42.7,37.4,31.6,80,63,44,30.06,29.97,24,3,24,0.00
2013-3-3,51.4,43.3,36.7,39.1,33.6,29.5,80,69,54,30.17,30.01,19,2,19,0.00
2013-3-4,66.9,49.2,32.8,39.7,31.1,22.8,92,56,23,30.25,30.12,8,1,8,0.00
2013-3-5,72.9,59.3,42.0,58.6,48.2,36.0,89,69,46,30.19,30.01,14,3,14,0.00
2013-3-6,64.0,57.0,45.1,61.4,43.8,33.8,96,64,35,30.16,29.92,21,5,21,0.00
2013-3-7,68.5,52.1,39.8,44.4,37.6,31.8,83,60,33,30.24,30.14,11,1,11,0.00
2013-3-8,76.5,57.0,39.7,49.4,41.6,33.6,96,64,22,30.24,30.12,12,1,12,0.00
2013-3-9,72.2,51.9,49.0,49.1,46.7,45.8,91,83,43,30.21,30.15,7,0,9,0.00
2013-8-4,81.0,80.3,79.7,77.8,77.4,76.8,91,91,90,30.01,29.99,7,3,0,0.00
2013-8-5,88.1,81.0,78.1,78.6,76.5,74.8,91,86,73,30.01,29.91,8,1,0,0.00
2013-8-6,93.9,82.9,73.5,80.5,75.7,70.6,91,80,56,29.97,29.89,13,1,0,0.00
2013-8-7,92.0,81.0,75.8,79.0,75.9,72.7,92,85,61,29.98,29.91,16,1,0,0.00
2013-8-8,93.3,81.9,76.0,78.0,75.2,71.9,92,81,50,30.04,29.94,12,0,0,0.00
2013-8-9,78.7,77.0,75.9,74.2,73.5,72.7,90,89,86,30.04,29.97,3,0,0,0.00
2013-8-11,93.7,86.9,79.9,76.2,73.3,71.2,81,65,51,30.13,30.05,7,0,0,0.00
2013-8-12,92.8,83.4,74.5,79.2,74.4,71.0,90,75,56,30.13,30.00,10,0,0,0.00
2013-8-13,95.3,83.9,76.4,78.8,74.9,71.1,88,76,47,30.06,29.93,7,1,0,0.00
2013-8-14,95.8,79.4,74.1,79.2,73.9,70.8,90,84,55,30.02,29.90,12,1,0,0.00
2013-8-15,93.4,81.1,73.5,78.8,74.0,70.3,90,80,53,30.04,29.92,14,1,0,0.00
2013-8-16,90.7,82.2,76.4,79.1,75.4,72.2,88,80,63,30.07,29.96,10,1,0,0.00
2013-8-17,89.5,79.7,74.1,79.0,74.1,70.3,88,83,68,30.10,29.97,12,0,0,0.00
2013-8-18,89.8,81.0,75.5,78.1,74.5,71.4,89,81,65,30.11,30.01,14,1,0,0.00
2013-8-19,75.7,75.0,74.2,71.6,71.1,70.3,88,88,87,30.10,30.01,4,0,0,0.00
2013-8-25,87.3,79.1,70.9,74.2,69.5,63.0,81,73,57,30.06,29.98,4,1,0,0.00
2013-8-26,89.9,80.9,72.9,73.7,69.7,64.9,79,70,53,30.06,29.97,1,0,0,0.00
2013-8-27,91.3,81.4,74.0,76.8,71.3,66.3,79,72,53,30.02,29.93,4,1,0,0.00
2013-8-28,93.1,81.1,74.1,77.0,70.0,65.6,78,70,51,29.99,29.88,5,1,0,0.00
2013-8-29,88.1,86.1,79.7,77.9,76.6,72.2,78,74,72,29.96,29.95,6,2,0,0.00
2013-8-31,89.8,78.8,75.3,76.9,69.1,65.8,78,72,66,29.96,29.86,12,1,12,0.00
2013-9-1,91.9,80.1,73.6,77.9,70.3,64.2,79,72,56,30.00,29.89,18,1,18,0.00
2013-9-2,90.7,80.5,73.8,77.4,71.1,64.2,78,73,59,30.01,29.92,12,1,12,0.00
2013-9-3,93.2,82.2,74.8,77.1,71.3,64.5,78,70,55,30.03,29.92,13,1,13,0.00
2013-9-4,92.9,80.0,72.6,78.5,70.1,62.7,79,72,58,30.10,29.98,15,1,15,0.00
2013-9-5,90.3,78.0,71.7,78.5,68.3,61.4,78,72,63,30.10,30.04,9,0,9,0.00
2013-9-6,91.3,77.4,70.6,78.7,67.4,59.1,78,72,59,30.06,29.97,18,0,18,0.00
2013-9-7,71.7,71.1,70.6,60.2,59.6,59.1,67,67,67,30.02,29.97,4,0,4,0.00
2013-9-14,92.7,86.2,79.5,74.7,72.8,70.0,75,65,54,29.99,29.87,7,0,7,0.00
2013-9-15,90.8,80.1,74.4,77.1,67.8,57.6,75,66,54,30.08,29.98,15,1,15,0.00
2013-9-16,90.6,79.2,71.9,76.2,64.8,54.2,74,62,52,30.09,29.98,15,1,15,0.00
2013-9-17,88.6,76.9,72.2,75.1,62.5,54.0,74,61,51,30.08,30.01,15,1,15,0.00
2013-9-19,89.5,80.6,72.1,74.5,68.5,52.8,75,67,49,30.06,29.97,20,2,20,0.00
2013-9-20,88.8,78.8,70.2,71.4,66.0,54.2,75,65,53,30.05,29.91,14,1,14,0.00
2013-9-21,90.6,79.4,70.0,73.1,65.9,52.2,75,64,52,29.96,29.77,8,1,8,0.00
2013-9-22,89.7,77.5,74.3,78.0,62.5,52.3,74,61,46,29.86,29.76,16,1,16,0.00
2013-9-23,82.3,75.3,72.4,71.7,53.9,49.3,71,48,43,29.96,29.83,10,0,10,0.00
2013-9-24,75.1,73.6,72.8,51.2,50.4,49.5,45,44,41,29.96,29.90,14,1,14,0.00
2013-9-25,79.8,76.2,72.6,70.4,58.9,47.2,73,56,40,29.85,29.77,17,4,17,0.00
2013-9-26,90.0,80.0,72.0,75.9,58.3,44.3,73,50,31,29.88,29.76,12,2,12,0.00
2013-9-27,80.1,73.4,68.9,70.7,55.6,45.0,73,55,41,29.96,29.86,17,1,17,0.00
2013-9-28,72.2,70.3,69.4,52.0,45.4,42.3,49,41,37,29.97,29.91,6,0,6,0.00
2013-10-3,89.5,81.2,69.2,74.1,68.6,51.3,73,66,53,30.07,29.97,11,1,11,0.00
2013-10-4,88.7,79.2,70.3,73.2,63.3,45.0,72,59,36,30.07,29.97,12,0,12,0.00
2013-10-5,88.0,78.1,69.3,74.0,61.7,42.7,72,58,38,30.05,29.94,17,1,17,0.00
2013-10-6,89.8,76.8,69.9,74.5,55.4,41.3,71,49,31,29.97,29.86,8,0,8,0.00
2013-10-7,83.0,76.4,72.8,71.7,52.8,41.0,69,45,29,29.84,29.72,16,2,16,0.00
2013-10-8,86.3,76.8,73.1,75.4,54.2,39.1,71,48,28,29.95,29.75,17,2,17,0.00
2013-10-9,79.8,71.1,66.5,69.4,56.0,46.4,73,59,47,30.04,29.93,14,1,14,0.00
2013-10-10,86.2,73.7,64.0,70.3,57.2,39.9,73,57,41,30.06,29.95,11,0,11,0.00
2013-10-11,85.8,73.7,63.2,69.9,56.0,36.8,73,55,33,30.04,29.93,7,0,7,0.00
2013-10-12,69.3,65.8,62.9,59.5,48.6,39.0,71,54,41,30.00,29.95,1,0,1,0.00
2013-10-15,79.2,73.1,67.8,68.9,53.2,38.3,71,51,31,29.98,29.89,1,0,10,0.00
2013-10-16,77.5,71.6,69.3,67.0,43.7,34.9,71,38,28,29.97,29.91,3,0,10,0.00
2013-10-17,87.5,76.2,67.3,72.3,53.8,32.1,71,49,23,29.97,29.87,2,0,10,0.00
2013-10-18,90.2,78.6,69.8,73.6,59.4,33.3,71,53,24,29.98,29.87,3,0,10,0.00
2013-10-19,75.9,74.5,73.1,59.1,55.1,51.1,56,51,46,29.94,29.91,0,0,10,0.00
2013-10-20,77.8,74.9,72.7,66.4,61.1,54.0,68,62,53,29.97,29.91,3,1,10,0.00
2013-10-21,89.8,78.1,70.8,76.5,58.1,36.7,70,52,28,29.99,29.88,3,1,10,0.00
2013-10-22,78.0,74.4,72.5,64.4,43.1,32.0,63,35,22,29.93,29.80,5,1,10,0.00
2013-10-23,82.3,72.7,63.3,66.7,51.3,33.8,73,49,26,30.01,29.79,4,1,10,0.00
2013-10-24,69.5,63.2,59.0,57.6,52.9,48.5,74,69,62,30.16,30.01,2,0,10,0.00
2013-10-25,81.0,66.6,54.1,58.2,47.5,30.9,74,51,36,30.25,30.15,3,0,10,0.00
2013-10-26,79.8,71.0,60.1,58.1,54.7,50.3,73,57,38,30.22,30.09,8,1,8,0.00
2013-10-27,78.8,65.5,54.4,59.3,49.6,33.6,74,57,40,30.15,30.05,6,0,10,0.00
2013-10-28,82.3,68.4,55.0,63.8,54.8,35.7,74,63,41,30.20,30.10,10,0,10,0.00
2013-10-29,65.9,63.5,61.6,49.3,41.0,34.6,55,44,35,30.19,30.15,4,0,4,0.00
2013-11-4,69.0,68.0,66.4,57.5,54.8,50.9,68,63,57,30.18,30.14,12,1,12,0.00
2013-11-5,81.0,71.7,65.3,68.3,53.0,36.2,71,53,32,30.16,30.08,26,3,26,0.00
2013-11-6,80.3,71.5,65.6,68.7,50.2,32.6,71,49,29,30.11,30.02,15,1,15,0.00
2013-11-7,66.3,65.8,65.6,32.8,30.1,27.3,29,26,23,30.05,29.99,5,0,5,0.00
2013-11-8,74.5,67.6,61.3,64.0,56.9,45.0,74,69,55,30.13,30.05,19,3,19,0.00
2013-11-9,79.1,71.0,60.6,65.7,57.6,45.0,72,63,55,30.15,30.10,14,2,14,0.00
2013-11-10,81.4,71.7,62.8,67.1,53.9,31.0,72,55,30,30.17,30.07,12,1,12,0.00
2013-11-11,74.7,64.6,61.1,64.6,37.4,28.7,71,39,28,30.16,30.11,10,0,10,0.00
2013-11-12,79.9,72.1,62.8,68.1,57.0,24.7,73,61,22,30.12,29.99,10,0,10,0.00
2013-11-13,66.1,58.2,53.2,57.2,49.0,45.4,76,72,62,30.33,30.08,21,4,21,0.00
2013-11-14,66.7,55.9,48.5,56.2,43.9,30.1,75,64,45,30.33,30.19,12,0,12,0.00
2013-11-15,73.0,65.4,59.1,63.1,48.4,29.9,72,56,27,30.21,30.08,8,0,8,0.00
2013-11-16,72.3,67.8,64.7,49.8,28.3,19.4,45,23,15,30.14,30.03,12,1,12,0.00
2013-11-17,83.0,74.2,66.6,71.3,45.8,13.5,70,43,12,30.08,29.98,9,1,9,0.00
2013-11-18,77.7,71.5,66.5,66.7,39.2,12.8,69,36,12,30.02,29.90,7,0,7,0.00
2013-11-19,75.2,68.8,62.6,63.0,40.0,1.6,72,45,7,29.99,29.87,12,1,12,0.00
2013-11-20,76.9,69.5,61.8,65.9,44.5,22.4,69,44,18,30.11,29.97,14,1,14,0.00
2013-11-21,77.1,70.9,67.2,64.9,32.0,-24.0,67,29,2,30.18,30.09,17,2,17,0.00
2013-11-22,77.3,70.9,66.2,66.3,5.6,-99.9,70,33,1,30.20,30.10,5,1,0,0.00
2013-11-23,82.3,71.0,62.7,69.5,31.2,-99.9,69,39,1,30.11,29.99,2,0,0,0.00
2013-11-24,67.2,62.0,57.9,55.6,43.2,16.7,72,55,16,30.25,30.02,22,3,0,0.00
2013-11-25,72.5,66.3,59.2,59.8,55.5,49.7,72,68,60,30.25,30.08,21,4,0,0.00
2013-11-26,80.3,72.0,66.0,67.8,19.6,-99.9,67,34,1,30.08,29.72,19,2,0,0.00
2013-11-27,71.6,59.7,42.0,55.7,18.4,-99.9,75,46,1,30.22,29.68,24,5,0,0.00
2013-11-28,62.5,48.8,35.1,51.0,39.2,24.8,76,70,58,30.37,30.22,9,1,0,0.00
2013-11-29,69.7,58.0,48.5,59.1,41.3,19.0,71,56,27,30.39,30.29,20,2,0,0.00
2013-11-30,75.0,63.1,55.0,62.4,38.4,11.9,69,43,16,30.32,30.19,19,1,0,0.00
2013-12-1,73.7,63.9,58.9,62.8,12.3,-99.9,69,28,1,30.21,29.97,10,0,0,0.00
2013-12-2,72.3,63.0,58.2,60.1,-7.7,-99.9,70,36,1,29.97,29.82,9,1,0,0.00
2013-12-3,77.6,65.6,55.5,63.9,46.8,17.7,69,52,22,29.98,29.87,8,0,0,0.00
2013-12-4,82.5,69.6,62.2,67.0,39.9,-2.6,68,40,7,30.08,29.96,6,0,0,0.00
2013-12-5,82.5,71.4,62.3,68.6,14.7,-99.9,67,35,1,30.17,30.07,8,0,0,0.00
2013-12-6,83.8,73.8,65.4,69.6,8.6,-99.9,66,36,1,30.17,30.07,14,1,0,0.00
2013-12-7,83.3,72.5,66.0,68.1,40.4,-24.0,67,39,2,30.23,30.12,8,0,0,0.00
2013-12-8,84.5,72.4,62.2,68.8,-9.3,-99.9,66,31,1,30.22,30.08,9,0,0,0.00
2013-12-9,82.8,73.2,64.9,69.5,22.5,-99.9,66,38,1,30.18,30.06,13,1,0,0.00
2013-12-10,81.3,72.7,65.3,68.0,35.0,-99.9,66,40,1,30.18,30.05,13,2,0,0.00
2013-12-11,79.6,67.3,57.0,67.2,47.9,11.2,67,52,13,30.25,30.14,13,1,0,0.00
2013-12-12,67.9,59.7,49.5,53.4,30.7,-16.1,71,39,4,30.33,30.19,16,1,0,0.00
2013-12-13,72.3,59.3,47.9,57.1,41.3,12.8,71,54,23,30.29,30.14,17,1,0,0.00
2013-12-14,80.1,73.3,61.3,67.7,48.6,22.1,66,44,20,30.08,29.91,16,2,0,0.00
2013-12-15,72.4,66.5,59.3,55.1,10.6,-99.9,66,29,1,30.09,29.84,20,2,0,0.00
2013-12-16,63.9,54.8,44.3,50.1,39.8,19.0,71,57,35,30.24,30.15,8,0,0,0.00
2013-12-17,71.3,58.8,44.7,54.7,45.2,23.2,71,61,42,30.28,30.16,9,0,0,0.00
2013-12-18,69.4,55.1,43.5,49.4,40.8,27.0,72,59,45,30.31,30.21,10,0,0,0.00
2013-12-19,74.4,59.5,46.5,58.1,46.0,35.4,69,61,47,30.30,30.18,7,1,0,0.00
2013-12-20,82.3,67.7,54.9,64.7,44.3,2.3,67,47,11,30.22,30.10,9,1,0,0.00
2013-12-21,85.1,73.4,64.3,69.9,18.2,-99.9,65,37,1,30.14,30.01,15,1,0,0.00
2013-12-22,83.7,78.3,71.6,70.3,63.0,43.2,65,60,36,30.13,30.05,14,1,0,0.00
2013-12-23,82.7,73.6,67.7,69.2,-19.5,-99.9,65,23,2,30.16,30.05,14,2,0,0.00
2013-12-24,70.4,60.8,47.8,54.0,-18.0,-99.9,70,31,12,30.27,30.07,19,1,0,0.00
2013-12-25,72.7,58.2,44.9,57.7,36.2,-99.9,70,56,2,30.26,30.16,6,1,0,0.00
2013-12-26,74.2,61.4,54.7,61.7,-24.1,-99.9,66,23,3,30.24,30.10,5,1,0,0.00
2013-12-27,67.2,61.6,55.7,35.7,-27.6,-99.9,32,11,1,30.27,30.17,5,2,0,0.00
2013-12-28,75.7,68.7,62.5,50.1,-34.6,-99.9,41,13,1,30.23,30.00,4,1,0,0.00
2013-12-29,74.4,69.6,59.7,28.1,-88.3,-99.9,18,1,1,30.01,29.87,6,2,0,0.00
2013-12-30,70.3,60.4,55.5,57.5,-22.0,-99.9,68,32,5,30.20,29.98,7,0,0,0.00
2013-12-31,67.5,60.4,56.1,52.6,42.4,4.2,68,53,12,30.31,30.17,12,1,0,0.00
2014-1-1,60.4,58.4,55.4,36.0,-72.8,-99.9,44,7,2,30.26,30.07,10,2,0,0.00
2014-1-2,76.3,64.7,56.2,52.5,-89.3,-99.9,49,2,7,30.07,29.81,15,3,0,0.00